Time;durP1;ratioP1;P1;durP2;ratioP2;P2;SDS_P1;SDS_P2;PMS_P1;PMS_P2;Temp;Humidity;BMP_temperature;BMP_pressure;BME280_temperature;BME280_humidity;BME280_pressure;Samples;Min_cycle;Max_cycle;Signal;HPM_P1;HPM_P2
2023/11/30 00:00:29;;;;;;;20.17;2.30;;;;;;;;;;5081698;28;20061;-41
2023/11/30 00:02:56;;;;;;;17.38;2.20;;;;;;;;;;5097596;28;20548;-39
2023/11/30 00:05:23;;;;;;;17.50;2.35;;;;;;;;;;5083871;28;20061;-39
2023/11/30 00:07:51;;;;;;;23.73;2.35;;;;;;;;;;5083441;28;20438;-38
2023/11/30 00:10:18;;;;;;;17.42;1.70;;;;;;;;;;5083753;28;20069;-37
2023/11/30 00:12:45;;;;;;;17.33;2.15;;;;;;;;;;5083689;28;20038;-38
2023/11/30 00:15:12;;;;;;;15.27;1.50;;;;;;;;;;5091473;28;20036;-39
2023/11/30 00:17:39;;;;;;;20.08;2.47;;;;;;;;;;5083968;28;20036;-38
2023/11/30 00:20:06;;;;;;;14.98;1.98;;;;;;;;;;5087221;28;20039;-37
2023/11/30 00:22:33;;;;;;;16.27;2.08;;;;;;;;;;5081393;28;20072;-37
2023/11/30 00:25:00;;;;;;;16.15;1.77;;;;;;;;;;5081886;28;20044;-37
2023/11/30 00:27:27;;;;;;;12.93;2.00;;;;;;;;;;5089664;28;20423;-38
2023/11/30 00:29:54;;;;;;;20.75;2.22;;;;;;;;;;5088065;28;20073;-38
2023/11/30 00:32:21;;;;;;;37.03;3.10;;;;;;;;;;5106317;28;20056;-36
2023/11/30 00:34:48;;;;;;;19.27;3.55;;;;;;;;;;5079481;28;20478;-36
2023/11/30 00:37:15;;;;;;;22.00;2.90;;;;;;;;;;5086478;28;20409;-37
2023/11/30 00:39:42;;;;;;;17.13;2.47;;;;;;;;;;5087210;28;20712;-39
2023/11/30 00:42:09;;;;;;;23.63;2.10;;;;;;;;;;5081362;28;20016;-36
2023/11/30 00:44:36;;;;;;;84.18;23.90;;;;;;;;;;5084771;28;20032;-37
2023/11/30 00:47:03;;;;;;;121.03;37.33;;;;;;;;;;5080780;28;20417;-38
2023/11/30 00:49:30;;;;;;;177.02;59.05;;;;;;;;;;5088841;28;20074;-38
2023/11/30 00:51:57;;;;;;;159.57;59.88;;;;;;;;;;5079652;28;20061;-38
2023/11/30 00:54:24;;;;;;;123.13;44.28;;;;;;;;;;5093711;28;20070;-38
2023/11/30 00:56:51;;;;;;;118.97;42.65;;;;;;;;;;5084463;28;20490;-38
2023/11/30 00:59:18;;;;;;;102.75;36.55;;;;;;;;;;5094530;28;20035;-38
2023/11/30 01:01:45;;;;;;;78.72;31.45;;;;;;;;;;5083861;28;20024;-38
2023/11/30 01:04:12;;;;;;;72.00;27.00;;;;;;;;;;5085734;28;20410;-38
2023/11/30 01:06:39;;;;;;;61.70;22.02;;;;;;;;;;5091254;28;20478;-38
2023/11/30 01:09:06;;;;;;;38.50;14.77;;;;;;;;;;5086907;28;20402;-38
2023/11/30 01:11:34;;;;;;;40.38;12.38;;;;;;;;;;5085608;28;20039;-38
2023/11/30 01:14:01;;;;;;;38.85;11.77;;;;;;;;;;5090170;28;20111;-38
2023/11/30 01:16:28;;;;;;;36.20;10.68;;;;;;;;;;5079956;28;20024;-36
2023/11/30 01:18:55;;;;;;;27.25;7.07;;;;;;;;;;5093483;28;20048;-38
2023/11/30 01:21:22;;;;;;;30.38;7.60;;;;;;;;;;5083872;28;20035;-38
2023/11/30 01:23:49;;;;;;;28.42;6.85;;;;;;;;;;5101546;28;20043;-38
2023/11/30 01:26:16;;;;;;;13.48;5.13;;;;;;;;;;5089114;28;20625;-37
2023/11/30 01:28:43;;;;;;;14.40;4.85;;;;;;;;;;5093884;28;20101;-39
2023/11/30 01:31:10;;;;;;;16.50;5.10;;;;;;;;;;5085023;28;20485;-40
2023/11/30 01:33:37;;;;;;;17.23;4.68;;;;;;;;;;5093640;28;20047;-43
2023/11/30 01:36:05;;;;;;;12.00;2.88;;;;;;;;;;5084548;28;20039;-40
2023/11/30 01:38:32;;;;;;;13.35;2.92;;;;;;;;;;5080185;28;20036;-41
2023/11/30 01:40:59;;;;;;;16.48;2.70;;;;;;;;;;5102959;28;20034;-38
2023/11/30 01:43:27;;;;;;;14.10;2.83;;;;;;;;;;5096477;28;20418;-39
2023/11/30 01:45:54;;;;;;;16.63;2.38;;;;;;;;;;5093764;28;20534;-38
2023/11/30 01:48:21;;;;;;;10.93;2.40;;;;;;;;;;5109975;28;20386;-38
2023/11/30 01:50:48;;;;;;;10.02;2.50;;;;;;;;;;5092242;28;20474;-37
2023/11/30 01:53:15;;;;;;;10.98;2.13;;;;;;;;;;5093445;28;20055;-36
2023/11/30 01:55:43;;;;;;;12.18;2.03;;;;;;;;;;5086312;28;20436;-39
2023/11/30 01:58:10;;;;;;;19.35;1.88;;;;;;;;;;5093303;28;20109;-37
2023/11/30 02:00:37;;;;;;;8.88;2.10;;;;;;;;;;5092771;28;20027;-36
2023/11/30 02:03:04;;;;;;;15.32;1.77;;;;;;;;;;5090967;28;20044;-38
2023/11/30 02:05:32;;;;;;;15.82;1.55;;;;;;;;;;5091733;28;20067;-38
2023/11/30 02:07:59;;;;;;;10.55;1.23;;;;;;;;;;5109626;28;20232;-38
2023/11/30 02:10:26;;;;;;;8.35;1.30;;;;;;;;;;5109406;28;20035;-39
2023/11/30 02:12:53;;;;;;;11.40;1.27;;;;;;;;;;5092734;28;20024;-39
2023/11/30 02:15:20;;;;;;;9.27;1.30;;;;;;;;;;5092140;28;20502;-38
2023/11/30 02:17:48;;;;;;;5.15;1.05;;;;;;;;;;5092422;28;20359;-38
2023/11/30 02:20:15;;;;;;;12.52;1.13;;;;;;;;;;5089477;28;20440;-39
2023/11/30 02:22:42;;;;;;;8.23;1.00;;;;;;;;;;5091100;28;20047;-39
2023/11/30 02:25:09;;;;;;;7.45;1.15;;;;;;;;;;5090650;28;20034;-38
2023/11/30 02:27:36;;;;;;;9.73;1.15;;;;;;;;;;5092290;28;20070;-38
2023/11/30 02:30:03;;;;;;;9.10;1.45;;;;;;;;;;5091167;28;20028;-39
2023/11/30 02:32:30;;;;;;;14.57;1.80;;;;;;;;;;5090694;28;20106;-39
2023/11/30 02:34:57;;;;;;;5.15;0.98;;;;;;;;;;5090785;28;20024;-38
2023/11/30 02:37:24;;;;;;;8.90;1.08;;;;;;;;;;5091794;28;20119;-39
2023/11/30 02:39:51;;;;;;;5.30;1.23;;;;;;;;;;5092607;28;20572;-37
2023/11/30 02:42:20;;;;;;;12.35;1.20;;;;;;;;;;5088963;28;20024;-38
2023/11/30 02:44:47;;;;;;;5.05;1.00;;;;;;;;;;5092589;28;20028;-38
2023/11/30 02:47:14;;;;;;;5.70;0.70;;;;;;;;;;5093211;28;20519;-38
2023/11/30 02:49:41;;;;;;;4.18;0.70;;;;;;;;;;5093112;28;20028;-38
2023/11/30 02:52:08;;;;;;;5.53;0.98;;;;;;;;;;5093026;28;20043;-39
2023/11/30 02:54:36;;;;;;;3.90;0.88;;;;;;;;;;5091747;28;20505;-38
2023/11/30 02:57:03;;;;;;;8.07;1.00;;;;;;;;;;5093143;28;20026;-38
2023/11/30 02:59:31;;;;;;;8.02;0.90;;;;;;;;;;5092962;28;20020;-39
2023/11/30 03:01:58;;;;;;;5.07;0.88;;;;;;;;;;5092808;28;20035;-37
2023/11/30 03:04:25;;;;;;;7.53;1.10;;;;;;;;;;5092808;28;20057;-37
2023/11/30 03:06:53;;;;;;;3.15;0.65;;;;;;;;;;5092939;28;20062;-39
2023/11/30 03:09:20;;;;;;;2.78;0.63;;;;;;;;;;5092734;28;20077;-39
2023/11/30 03:11:47;;;;;;;4.03;0.85;;;;;;;;;;5092687;28;20024;-39
2023/11/30 03:14:14;;;;;;;4.38;0.70;;;;;;;;;;5092774;28;20872;-39
2023/11/30 03:16:41;;;;;;;2.90;0.60;;;;;;;;;;5090961;28;20440;-38
2023/11/30 03:19:08;;;;;;;2.05;0.60;;;;;;;;;;5092762;28;20452;-38
2023/11/30 03:21:36;;;;;;;3.03;0.60;;;;;;;;;;5092240;28;20517;-38
2023/11/30 03:24:04;;;;;;;3.60;1.00;;;;;;;;;;5092553;28;20031;-39
2023/11/30 03:26:31;;;;;;;1.70;0.80;;;;;;;;;;5092600;28;20060;-38
2023/11/30 03:28:58;;;;;;;7.55;0.95;;;;;;;;;;5092551;28;20047;-38
2023/11/30 03:31:25;;;;;;;4.45;0.85;;;;;;;;;;5092288;28;20032;-38
2023/11/30 03:33:52;;;;;;;5.22;0.85;;;;;;;;;;5092419;28;20077;-38
2023/11/30 03:36:20;;;;;;;4.72;0.68;;;;;;;;;;5092588;28;20413;-39
2023/11/30 03:38:53;;;;;;;6.03;0.57;;;;;;;;;;5092249;28;20056;-36
2023/11/30 03:41:23;;;;;;;5.07;0.70;;;;;;;;;;5092075;28;20028;-37
2023/11/30 03:43:51;;;;;;;1.05;0.50;;;;;;;;;;5092063;28;20024;-37
2023/11/30 03:46:21;;;;;;;3.38;0.63;;;;;;;;;;5092221;28;20086;-37
2023/11/30 03:48:48;;;;;;;2.95;0.50;;;;;;;;;;5092090;28;20040;-37
2023/11/30 03:51:15;;;;;;;1.05;0.50;;;;;;;;;;5078434;28;20031;-37
2023/11/30 03:53:41;;;;;;;2.17;0.63;;;;;;;;;;5071925;28;20036;-37
2023/11/30 03:56:09;;;;;;;0.65;0.47;;;;;;;;;;5071864;28;20040;-37
2023/11/30 03:58:35;;;;;;;1.80;0.60;;;;;;;;;;5072019;28;20454;-37
2023/11/30 04:01:03;;;;;;;2.40;0.68;;;;;;;;;;5071796;28;20032;-37
2023/11/30 04:03:29;;;;;;;3.08;0.63;;;;;;;;;;5071515;28;20044;-37
2023/11/30 04:05:56;;;;;;;4.47;1.13;;;;;;;;;;5071785;28;20024;-37
2023/11/30 04:08:26;;;;;;;4.68;0.80;;;;;;;;;;5071721;28;20056;-37
2023/11/30 04:10:53;;;;;;;3.58;0.80;;;;;;;;;;5071667;28;20056;-37
2023/11/30 04:13:21;;;;;;;4.38;0.70;;;;;;;;;;5071766;28;20028;-37
2023/11/30 04:15:48;;;;;;;3.13;0.73;;;;;;;;;;5071706;28;20025;-37
2023/11/30 04:18:15;;;;;;;4.38;0.70;;;;;;;;;;5071610;28;20032;-37
2023/11/30 04:20:42;;;;;;;2.05;0.73;;;;;;;;;;5071511;28;20020;-37
2023/11/30 04:23:09;;;;;;;1.60;0.77;;;;;;;;;;5071600;28;20032;-37
2023/11/30 04:25:35;;;;;;;3.20;0.63;;;;;;;;;;5071592;28;20086;-37
2023/11/30 04:28:02;;;;;;;1.38;0.68;;;;;;;;;;5072967;28;20027;-37
2023/11/30 04:30:29;;;;;;;1.85;0.70;;;;;;;;;;5091717;28;20063;-37
2023/11/30 04:32:56;;;;;;;3.80;0.70;;;;;;;;;;5091688;28;20051;-37
2023/11/30 04:35:23;;;;;;;2.75;0.82;;;;;;;;;;5091727;28;20095;-37
2023/11/30 04:37:51;;;;;;;2.17;0.80;;;;;;;;;;5091762;28;20028;-37
2023/11/30 04:40:18;;;;;;;2.90;0.80;;;;;;;;;;5091448;28;20120;-37
2023/11/30 04:42:45;;;;;;;2.20;0.40;;;;;;;;;;5091498;28;20081;-37
2023/11/30 04:45:12;;;;;;;2.63;0.80;;;;;;;;;;5091699;28;20766;-37
2023/11/30 04:47:39;;;;;;;1.80;0.60;;;;;;;;;;5091747;28;20462;-37
2023/11/30 04:50:06;;;;;;;1.65;0.60;;;;;;;;;;5091521;28;20028;-37
2023/11/30 04:52:33;;;;;;;1.30;0.55;;;;;;;;;;5091691;28;20024;-37
2023/11/30 04:55:00;;;;;;;2.22;0.68;;;;;;;;;;5091627;28;20477;-37
2023/11/30 04:57:27;;;;;;;1.77;0.73;;;;;;;;;;5091595;28;20024;-37
2023/11/30 04:59:54;;;;;;;0.63;0.52;;;;;;;;;;5091490;28;20444;-37
2023/11/30 05:02:21;;;;;;;0.90;0.60;;;;;;;;;;5091407;28;20093;-37
2023/11/30 05:04:48;;;;;;;1.65;0.70;;;;;;;;;;5091278;28;20055;-37
2023/11/30 05:07:16;;;;;;;1.83;1.00;;;;;;;;;;5091476;28;20489;-37
2023/11/30 05:09:43;;;;;;;2.13;0.50;;;;;;;;;;5091329;28;20544;-37
2023/11/30 05:12:10;;;;;;;2.15;0.60;;;;;;;;;;5091401;28;20078;-37
2023/11/30 05:14:37;;;;;;;2.67;0.70;;;;;;;;;;5091419;28;20016;-37
2023/11/30 05:17:04;;;;;;;2.80;0.60;;;;;;;;;;5091357;28;20020;-37
2023/11/30 05:19:31;;;;;;;5.30;0.90;;;;;;;;;;5091357;28;20038;-36
2023/11/30 05:21:58;;;;;;;3.00;0.70;;;;;;;;;;5091268;28;20497;-36
2023/11/30 05:24:25;;;;;;;2.95;0.70;;;;;;;;;;5091265;28;20038;-36
2023/11/30 05:26:52;;;;;;;4.43;0.70;;;;;;;;;;5091271;28;20032;-36
2023/11/30 05:29:18;;;;;;;3.47;0.85;;;;;;;;;;5091279;28;20032;-36
2023/11/30 05:31:45;;;;;;;1.38;0.50;;;;;;;;;;5091271;28;20076;-36
2023/11/30 05:34:12;;;;;;;5.20;0.57;;;;;;;;;;5091238;28;20028;-36
2023/11/30 05:36:39;;;;;;;3.70;0.82;;;;;;;;;;5091178;28;20059;-36
2023/11/30 05:39:06;;;;;;;1.92;0.70;;;;;;;;;;5092561;28;20059;-36
2023/11/30 05:41:33;;;;;;;1.40;0.63;;;;;;;;;;5094791;28;20394;-36
2023/11/30 05:44:00;;;;;;;1.13;0.50;;;;;;;;;;5094788;28;20032;-36
2023/11/30 05:46:27;;;;;;;1.63;0.80;;;;;;;;;;5094732;28;20016;-36
2023/11/30 05:48:54;;;;;;;2.13;0.60;;;;;;;;;;5094637;28;20028;-36
2023/11/30 05:51:21;;;;;;;1.30;0.57;;;;;;;;;;5094512;28;20016;-36
2023/11/30 05:53:48;;;;;;;1.63;0.65;;;;;;;;;;5094569;28;20067;-36
2023/11/30 05:56:16;;;;;;;1.30;0.70;;;;;;;;;;5094577;28;20027;-36
2023/11/30 05:58:43;;;;;;;3.47;0.70;;;;;;;;;;5094357;28;20056;-36
2023/11/30 06:01:09;;;;;;;2.85;0.80;;;;;;;;;;5092700;28;20032;-36
2023/11/30 06:03:36;;;;;;;3.55;0.82;;;;;;;;;;5094060;28;20122;-36
2023/11/30 06:06:04;;;;;;;0.80;0.50;;;;;;;;;;5094138;28;20398;-36
2023/11/30 06:08:31;;;;;;;1.50;0.60;;;;;;;;;;5094371;28;20109;-36
2023/11/30 06:10:58;;;;;;;1.50;0.80;;;;;;;;;;5094098;28;20102;-36
2023/11/30 06:13:25;;;;;;;3.00;0.80;;;;;;;;;;5094083;28;20115;-36
2023/11/30 06:15:55;;;;;;;2.53;0.63;;;;;;;;;;5094210;28;20467;-36
2023/11/30 06:18:23;;;;;;;1.02;0.70;;;;;;;;;;5094132;28;20095;-36
2023/11/30 06:20:50;;;;;;;2.75;0.88;;;;;;;;;;5094104;28;20363;-36
2023/11/30 06:23:16;;;;;;;2.67;0.70;;;;;;;;;;5093905;28;20060;-37
2023/11/30 06:25:44;;;;;;;2.30;0.88;;;;;;;;;;5093890;28;20093;-36
2023/11/30 06:28:11;;;;;;;2.10;0.80;;;;;;;;;;5093543;28;20065;-36
2023/11/30 06:30:38;;;;;;;2.83;0.80;;;;;;;;;;5093832;28;20435;-36
2023/11/30 06:33:05;;;;;;;3.17;0.80;;;;;;;;;;5093666;28;20040;-36
2023/11/30 06:35:31;;;;;;;2.78;0.75;;;;;;;;;;5093745;28;20070;-36
2023/11/30 06:37:59;;;;;;;2.00;0.82;;;;;;;;;;5092362;28;20362;-36
2023/11/30 06:40:25;;;;;;;3.10;0.85;;;;;;;;;;5093513;28;20024;-36
2023/11/30 06:42:52;;;;;;;2.42;0.88;;;;;;;;;;5093507;28;20063;-36
2023/11/30 06:45:19;;;;;;;1.10;0.60;;;;;;;;;;5093600;28;20089;-36
2023/11/30 06:47:46;;;;;;;0.73;0.60;;;;;;;;;;5093555;28;20071;-36
2023/11/30 06:50:13;;;;;;;1.25;0.70;;;;;;;;;;5092660;28;20048;-36
2023/11/30 06:52:40;;;;;;;1.95;0.80;;;;;;;;;;5093532;28;20043;-36
2023/11/30 06:55:07;;;;;;;3.72;0.73;;;;;;;;;;5092000;28;20358;-36
2023/11/30 06:57:35;;;;;;;2.97;0.88;;;;;;;;;;5093395;28;20497;-36
2023/11/30 07:00:03;;;;;;;2.08;0.70;;;;;;;;;;5093193;28;20024;-36
2023/11/30 07:02:30;;;;;;;1.83;0.77;;;;;;;;;;5092856;28;20036;-36
2023/11/30 07:04:57;;;;;;;1.67;0.90;;;;;;;;;;5093113;28;20024;-36
2023/11/30 07:07:24;;;;;;;2.42;0.75;;;;;;;;;;5093166;28;20028;-36
2023/11/30 07:09:51;;;;;;;2.58;0.95;;;;;;;;;;5093087;28;20031;-36
2023/11/30 07:12:18;;;;;;;3.72;1.00;;;;;;;;;;5092963;28;20082;-36
2023/11/30 07:14:45;;;;;;;4.82;0.90;;;;;;;;;;5092985;28;20037;-36
2023/11/30 07:17:12;;;;;;;1.10;0.90;;;;;;;;;;5091600;28;20031;-36
2023/11/30 07:19:42;;;;;;;1.83;0.90;;;;;;;;;;5092868;28;20035;-36
2023/11/30 07:22:09;;;;;;;2.83;1.00;;;;;;;;;;5092817;28;20024;-36
2023/11/30 07:24:36;;;;;;;1.92;0.88;;;;;;;;;;5091265;28;20496;-36
2023/11/30 07:27:03;;;;;;;2.72;0.60;;;;;;;;;;5092805;28;20020;-36
2023/11/30 07:29:33;;;;;;;5.18;0.93;;;;;;;;;;5091192;28;20024;-36
2023/11/30 07:32:00;;;;;;;1.65;1.00;;;;;;;;;;5092592;28;20028;-36
2023/11/30 07:34:27;;;;;;;2.28;0.85;;;;;;;;;;5092694;28;20024;-36
2023/11/30 07:36:54;;;;;;;1.30;0.80;;;;;;;;;;5092581;28;20499;-36
2023/11/30 07:39:20;;;;;;;1.17;0.70;;;;;;;;;;5092458;28;20027;-36
2023/11/30 07:41:48;;;;;;;2.03;0.80;;;;;;;;;;5092461;28;20024;-36
2023/11/30 07:44:16;;;;;;;1.20;0.80;;;;;;;;;;5092264;28;20059;-36
2023/11/30 07:46:43;;;;;;;2.28;0.88;;;;;;;;;;5092380;28;20028;-36
2023/11/30 07:49:11;;;;;;;1.80;0.80;;;;;;;;;;5092303;28;20024;-36
2023/11/30 07:51:37;;;;;;;2.28;0.70;;;;;;;;;;5092173;28;20036;-36
2023/11/30 07:54:05;;;;;;;1.23;0.82;;;;;;;;;;5092216;28;20020;-36
2023/11/30 07:56:32;;;;;;;2.13;0.98;;;;;;;;;;5092171;28;20056;-36
2023/11/30 07:58:59;;;;;;;2.55;0.90;;;;;;;;;;5092058;28;20031;-36
2023/11/30 08:01:29;;;;;;;2.92;0.80;;;;;;;;;;5092110;28;20095;-36
2023/11/30 08:03:56;;;;;;;1.48;0.90;;;;;;;;;;5091914;28;20501;-36
2023/11/30 08:06:23;;;;;;;2.28;0.93;;;;;;;;;;5092028;28;20043;-36
2023/11/30 08:08:50;;;;;;;1.73;1.00;;;;;;;;;;5092025;28;20051;-36
2023/11/30 08:11:17;;;;;;;5.00;0.88;;;;;;;;;;5092234;28;20024;-36
2023/11/30 08:13:44;;;;;;;1.58;0.90;;;;;;;;;;5092008;28;20099;-36
2023/11/30 08:16:11;;;;;;;1.88;0.80;;;;;;;;;;5091919;28;20020;-36
2023/11/30 08:18:38;;;;;;;0.80;0.80;;;;;;;;;;5091972;28;20039;-36
2023/11/30 08:21:05;;;;;;;1.20;0.98;;;;;;;;;;5091817;28;20157;-36
2023/11/30 08:23:33;;;;;;;2.45;0.80;;;;;;;;;;5091763;28;20427;-36
2023/11/30 08:26:02;;;;;;;1.73;0.90;;;;;;;;;;5091715;28;20028;-36
2023/11/30 08:28:29;;;;;;;1.05;0.82;;;;;;;;;;5092091;28;20031;-36
2023/11/30 08:30:56;;;;;;;3.08;1.02;;;;;;;;;;5091645;28;20044;-36
2023/11/30 08:33:24;;;;;;;1.55;0.95;;;;;;;;;;5091754;28;20116;-36
2023/11/30 08:35:51;;;;;;;1.75;0.98;;;;;;;;;;5091860;28;20354;-36
2023/11/30 08:38:17;;;;;;;1.77;0.80;;;;;;;;;;5091752;28;20020;-36
2023/11/30 08:40:44;;;;;;;6.82;0.90;;;;;;;;;;5091584;28;20485;-36
2023/11/30 08:43:12;;;;;;;8.85;1.40;;;;;;;;;;5091539;28;20028;-36
2023/11/30 08:45:38;;;;;;;5.28;1.27;;;;;;;;;;5091726;28;20043;-36
2023/11/30 08:48:06;;;;;;;4.10;1.20;;;;;;;;;;5091626;28;20016;-36
2023/11/30 08:50:32;;;;;;;4.53;1.10;;;;;;;;;;5091626;28;20020;-36
2023/11/30 08:52:59;;;;;;;4.28;1.23;;;;;;;;;;5091618;28;20028;-36
2023/11/30 08:55:26;;;;;;;2.88;1.20;;;;;;;;;;5091622;28;20081;-36
2023/11/30 08:57:54;;;;;;;8.10;1.40;;;;;;;;;;5091610;28;20077;-36
2023/11/30 09:00:21;;;;;;;2.38;0.90;;;;;;;;;;5091040;28;20173;-36
2023/11/30 09:02:48;;;;;;;4.90;1.08;;;;;;;;;;5091082;28;20111;-36
2023/11/30 09:05:15;;;;;;;3.85;1.50;;;;;;;;;;5088056;28;20131;-36
2023/11/30 09:07:42;;;;;;;3.75;1.35;;;;;;;;;;5071219;28;20040;-36
2023/11/30 09:10:09;;;;;;;3.97;1.20;;;;;;;;;;5071089;28;20027;-36
2023/11/30 09:12:36;;;;;;;3.92;0.98;;;;;;;;;;5069723;28;20402;-36
2023/11/30 09:15:08;;;;;;;6.47;1.10;;;;;;;;;;5073966;28;20387;-36
2023/11/30 09:17:36;;;;;;;4.22;1.23;;;;;;;;;;5074986;28;20074;-36
2023/11/30 09:20:07;;;;;;;3.83;1.30;;;;;;;;;;5074780;28;20025;-36
2023/11/30 09:22:34;;;;;;;3.40;1.20;;;;;;;;;;5077860;28;20571;-36
2023/11/30 09:25:01;;;;;;;6.38;1.55;;;;;;;;;;5094674;28;20136;-36
2023/11/30 09:27:28;;;;;;;5.47;1.05;;;;;;;;;;5094977;28;20091;-36
2023/11/30 09:29:55;;;;;;;7.40;1.17;;;;;;;;;;5094836;28;20592;-36
2023/11/30 09:32:22;;;;;;;3.72;1.38;;;;;;;;;;5094867;28;20087;-36
2023/11/30 09:34:49;;;;;;;4.90;1.33;;;;;;;;;;5093703;28;20023;-36
2023/11/30 09:37:16;;;;;;;4.20;1.00;;;;;;;;;;5094586;28;20027;-36
2023/11/30 09:39:44;;;;;;;4.72;1.30;;;;;;;;;;5094653;28;20020;-36
2023/11/30 09:42:15;;;;;;;9.23;1.40;;;;;;;;;;5094039;28;20067;-36
2023/11/30 09:44:45;;;;;;;5.20;1.42;;;;;;;;;;5094235;28;20398;-36
2023/11/30 09:47:12;;;;;;;8.05;1.55;;;;;;;;;;5094580;28;20103;-35
2023/11/30 09:49:39;;;;;;;10.85;1.92;;;;;;;;;;5094199;28;20086;-35
2023/11/30 09:52:06;;;;;;;8.93;1.40;;;;;;;;;;5094584;28;20367;-35
2023/11/30 09:54:34;;;;;;;5.70;1.33;;;;;;;;;;5094346;28;20036;-35
2023/11/30 09:57:01;;;;;;;17.05;1.70;;;;;;;;;;5094041;28;20044;-35
2023/11/30 09:59:28;;;;;;;9.18;2.10;;;;;;;;;;5093816;28;20031;-35
2023/11/30 10:01:55;;;;;;;12.05;1.80;;;;;;;;;;5093312;28;20486;-35
2023/11/30 10:04:27;;;;;;;13.10;2.03;;;;;;;;;;5093428;28;20036;-36
2023/11/30 10:06:55;;;;;;;8.95;1.60;;;;;;;;;;5093598;28;20031;-35
2023/11/30 10:09:22;;;;;;;14.48;2.53;;;;;;;;;;5093457;28;20026;-35
2023/11/30 10:11:49;;;;;;;11.60;2.00;;;;;;;;;;5093602;28;20028;-35
2023/11/30 10:14:18;;;;;;;11.55;2.50;;;;;;;;;;5076695;28;20032;-38
2023/11/30 10:16:45;;;;;;;8.07;2.00;;;;;;;;;;5073108;28;20032;-37
2023/11/30 10:19:13;;;;;;;16.77;2.20;;;;;;;;;;5085902;28;20368;-36
2023/11/30 10:21:41;;;;;;;10.55;2.05;;;;;;;;;;5093480;28;20042;-36
2023/11/30 10:24:08;;;;;;;19.50;3.20;;;;;;;;;;5092203;28;20101;-36
2023/11/30 10:26:36;;;;;;;21.85;2.85;;;;;;;;;;5092654;28;20032;-36
2023/11/30 10:29:06;;;;;;;26.88;3.03;;;;;;;;;;5093139;28;20103;-36
2023/11/30 10:31:36;;;;;;;12.27;1.90;;;;;;;;;;5092829;28;20111;-36
2023/11/30 10:34:07;;;;;;;16.05;2.05;;;;;;;;;;5090623;28;20047;-36
2023/11/30 10:36:34;;;;;;;11.30;1.70;;;;;;;;;;5093508;28;20024;-36
2023/11/30 10:39:03;;;;;;;14.90;1.80;;;;;;;;;;5092249;28;20117;-36
2023/11/30 10:41:43;;;;;;;11.85;1.60;;;;;;;;;;5090080;28;20063;-36
2023/11/30 10:44:12;;;;;;;10.77;2.22;;;;;;;;;;5092412;28;20105;-36
2023/11/30 10:46:39;;;;;;;13.55;1.80;;;;;;;;;;5090932;28;20046;-36
2023/11/30 10:49:07;;;;;;;13.65;1.98;;;;;;;;;;5093182;28;20020;-36
2023/11/30 10:51:34;;;;;;;6.88;1.50;;;;;;;;;;5092989;28;20031;-36
2023/11/30 10:54:05;;;;;;;17.58;1.90;;;;;;;;;;5093009;28;20474;-36
2023/11/30 10:56:33;;;;;;;15.20;1.33;;;;;;;;;;5093306;28;20785;-36
2023/11/30 10:59:00;;;;;;;9.85;1.50;;;;;;;;;;5093112;28;20026;-36
2023/11/30 11:01:27;;;;;;;6.15;1.10;;;;;;;;;;5093186;28;20521;-36
2023/11/30 11:03:57;;;;;;;10.98;1.50;;;;;;;;;;5092845;28;20047;-36
2023/11/30 11:06:25;;;;;;;11.18;1.25;;;;;;;;;;5093075;28;20494;-36
2023/11/30 11:09:02;;;;;;;5.40;1.52;;;;;;;;;;5093022;28;20436;-36
2023/11/30 11:11:30;;;;;;;8.90;1.55;;;;;;;;;;5092983;28;20023;-36
2023/11/30 11:13:57;;;;;;;10.60;1.50;;;;;;;;;;5093021;28;20028;-36
2023/11/30 11:16:41;;;;;;;14.05;1.73;;;;;;;;;;5093023;28;20028;-36
2023/11/30 11:19:08;;;;;;;7.85;1.35;;;;;;;;;;5092686;28;20039;-36
2023/11/30 11:21:37;;;;;;;10.80;1.63;;;;;;;;;;5092907;28;20039;-36
2023/11/30 11:24:04;;;;;;;10.88;2.00;;;;;;;;;;5092603;28;20097;-36
2023/11/30 11:26:48;;;;;;;11.77;1.85;;;;;;;;;;5092821;28;20032;-36
2023/11/30 11:29:16;;;;;;;7.28;2.13;;;;;;;;;;5092521;28;20024;-36
2023/11/30 11:31:44;;;;;;;12.52;1.70;;;;;;;;;;5092605;28;20028;-36
2023/11/30 11:34:11;;;;;;;10.93;2.20;;;;;;;;;;5092572;28;20028;-36
2023/11/30 11:36:38;;;;;;;9.55;1.65;;;;;;;;;;5092325;28;20097;-35
2023/11/30 11:39:06;;;;;;;7.30;1.45;;;;;;;;;;5091062;28;20024;-36
2023/11/30 11:41:33;;;;;;;13.93;1.98;;;;;;;;;;5092337;28;20046;-35
2023/11/30 11:44:00;;;;;;;7.88;1.48;;;;;;;;;;5092457;28;20442;-35
2023/11/30 11:46:29;;;;;;;8.00;1.35;;;;;;;;;;5092449;28;20020;-36
2023/11/30 11:48:56;;;;;;;8.40;1.30;;;;;;;;;;5092151;28;20080;-36
2023/11/30 11:51:23;;;;;;;12.90;1.60;;;;;;;;;;5092233;28;20024;-35
2023/11/30 11:53:50;;;;;;;9.98;1.40;;;;;;;;;;5092171;28;20390;-37
2023/11/30 11:56:17;;;;;;;7.40;1.23;;;;;;;;;;5092247;28;20031;-39
2023/11/30 11:58:44;;;;;;;8.35;1.30;;;;;;;;;;5087525;28;20391;-37
2023/11/30 12:01:12;;;;;;;14.57;1.60;;;;;;;;;;5071840;28;20029;-37
2023/11/30 12:03:46;;;;;;;5.63;1.10;;;;;;;;;;5071357;28;20254;-37
2023/11/30 12:06:13;;;;;;;11.20;1.60;;;;;;;;;;5071772;28;20021;-37
2023/11/30 12:08:42;;;;;;;14.48;1.50;;;;;;;;;;5069108;28;20021;-37
2023/11/30 12:11:10;;;;;;;11.13;1.48;;;;;;;;;;5070914;28;20041;-37
2023/11/30 12:13:37;;;;;;;5.47;0.80;;;;;;;;;;5071626;28;20026;-38
2023/11/30 12:16:05;;;;;;;7.95;1.25;;;;;;;;;;5071435;28;20040;-37
2023/11/30 12:18:32;;;;;;;4.10;1.15;;;;;;;;;;5071505;28;20035;-37
2023/11/30 12:20:59;;;;;;;7.40;1.25;;;;;;;;;;5088214;28;20031;-37
2023/11/30 12:23:26;;;;;;;8.75;1.58;;;;;;;;;;5091043;28;20042;-37
2023/11/30 12:25:53;;;;;;;8.15;1.50;;;;;;;;;;5088681;28;20371;-37
2023/11/30 12:28:20;;;;;;;11.98;1.63;;;;;;;;;;5091168;28;20031;-37
2023/11/30 12:30:47;;;;;;;6.68;1.08;;;;;;;;;;5089902;28;20098;-37
2023/11/30 12:33:14;;;;;;;5.68;1.08;;;;;;;;;;5091150;28;20081;-37
2023/11/30 12:35:41;;;;;;;16.20;1.63;;;;;;;;;;5080526;28;20815;-43
2023/11/30 12:38:08;;;;;;;18.27;1.75;;;;;;;;;;5072740;28;20012;-42
2023/11/30 12:40:35;;;;;;;18.88;2.25;;;;;;;;;;5081304;28;20042;-42
2023/11/30 12:43:02;;;;;;;14.70;1.73;;;;;;;;;;5071316;28;20108;-42
2023/11/30 12:45:29;;;;;;;16.55;1.90;;;;;;;;;;5071232;28;20039;-42
2023/11/30 12:47:56;;;;;;;5.75;1.88;;;;;;;;;;5071192;28;20041;-41
2023/11/30 12:50:23;;;;;;;12.50;1.67;;;;;;;;;;5075919;28;20060;-42
2023/11/30 12:52:50;;;;;;;12.07;1.60;;;;;;;;;;5095098;28;20024;-42
2023/11/30 12:55:17;;;;;;;10.93;1.67;;;;;;;;;;5095244;28;20020;-42
2023/11/30 12:57:44;;;;;;;13.98;1.55;;;;;;;;;;5094975;28;20066;-42
2023/11/30 13:00:14;;;;;;;6.78;1.60;;;;;;;;;;5104059;28;20024;-41
2023/11/30 13:02:43;;;;;;;10.88;1.73;;;;;;;;;;5074843;28;20082;-42
2023/11/30 13:05:13;;;;;;;12.43;2.03;;;;;;;;;;5074963;28;20475;-42
2023/11/30 13:07:40;;;;;;;9.75;1.55;;;;;;;;;;5090598;28;20067;-42
2023/11/30 13:10:08;;;;;;;11.13;1.70;;;;;;;;;;5094840;28;20077;-42
2023/11/30 13:12:36;;;;;;;8.90;1.60;;;;;;;;;;5094453;28;20111;-42
2023/11/30 13:15:06;;;;;;;12.90;1.63;;;;;;;;;;5094685;28;20153;-42
2023/11/30 13:17:34;;;;;;;9.13;1.48;;;;;;;;;;5094422;28;20436;-42
2023/11/30 13:20:01;;;;;;;7.47;1.33;;;;;;;;;;5094624;28;20024;-42
2023/11/30 13:22:28;;;;;;;9.00;1.20;;;;;;;;;;5094545;28;20433;-42
2023/11/30 13:24:55;;;;;;;11.55;1.85;;;;;;;;;;5094537;28;20034;-41
2023/11/30 13:27:22;;;;;;;6.05;1.40;;;;;;;;;;5094594;28;20024;-42
2023/11/30 13:29:49;;;;;;;12.15;1.52;;;;;;;;;;5085567;28;20853;-41
2023/11/30 13:32:16;;;;;;;9.50;1.40;;;;;;;;;;5093937;28;20050;-42
2023/11/30 13:34:43;;;;;;;12.10;1.38;;;;;;;;;;5094289;28;20032;-42
2023/11/30 13:37:10;;;;;;;6.13;1.20;;;;;;;;;;5091950;28;20032;-42
2023/11/30 13:39:37;;;;;;;10.27;1.20;;;;;;;;;;5093939;28;20036;-41
2023/11/30 13:42:04;;;;;;;8.52;1.40;;;;;;;;;;5092938;28;20035;-42
2023/11/30 13:44:31;;;;;;;8.18;1.48;;;;;;;;;;5094601;28;20044;-42
2023/11/30 13:46:58;;;;;;;8.95;1.50;;;;;;;;;;5093922;28;20029;-42
2023/11/30 13:49:26;;;;;;;6.90;1.45;;;;;;;;;;5093701;28;20024;-42
2023/11/30 13:51:54;;;;;;;7.07;1.50;;;;;;;;;;5093300;28;20509;-44
2023/11/30 13:54:23;;;;;;;10.38;1.45;;;;;;;;;;5094162;28;20024;-45
2023/11/30 13:56:50;;;;;;;8.73;1.10;;;;;;;;;;5094342;28;20036;-44
2023/11/30 13:59:17;;;;;;;5.55;1.10;;;;;;;;;;5088915;28;20032;-44
2023/11/30 14:01:44;;;;;;;6.18;1.17;;;;;;;;;;5093383;28;20059;-44
2023/11/30 14:04:11;;;;;;;9.27;1.40;;;;;;;;;;5093636;28;20048;-44
2023/11/30 14:06:38;;;;;;;8.15;1.38;;;;;;;;;;5093625;28;20024;-44
2023/11/30 14:09:13;;;;;;;9.10;1.05;;;;;;;;;;5093693;28;20059;-45
2023/11/30 14:11:40;;;;;;;8.82;1.48;;;;;;;;;;5093633;28;20075;-44
2023/11/30 14:14:07;;;;;;;5.72;1.10;;;;;;;;;;5093558;28;20020;-43
2023/11/30 14:16:35;;;;;;;6.78;1.30;;;;;;;;;;5093614;28;20043;-44
2023/11/30 14:19:03;;;;;;;8.30;1.15;;;;;;;;;;5093325;28;20386;-44
2023/11/30 14:21:30;;;;;;;8.80;1.73;;;;;;;;;;5093584;28;20032;-44
2023/11/30 14:23:57;;;;;;;7.72;1.00;;;;;;;;;;5093429;28;20047;-43
2023/11/30 14:26:25;;;;;;;6.05;1.15;;;;;;;;;;5090793;28;20055;-44
2023/11/30 14:28:52;;;;;;;9.13;1.27;;;;;;;;;;5093464;28;20028;-44
2023/11/30 14:31:19;;;;;;;8.73;1.38;;;;;;;;;;5093327;28;20386;-44
2023/11/30 14:33:47;;;;;;;8.25;1.40;;;;;;;;;;5093133;28;20035;-44
2023/11/30 14:36:14;;;;;;;7.47;1.67;;;;;;;;;;5093078;28;20043;-44
2023/11/30 14:38:41;;;;;;;12.15;2.00;;;;;;;;;;5093153;28;20036;-45